Terminal Aerodrome Forecast
Issued by NWS

Home | Current Version | Previous Version | Text Only | Print | Product List | Glossary On
Versions: 1 2 3 4 5 6 7 8 9 10 11 12 13 14 15 16 17 18 19 20 21
228
FTUS44 KMAF 261944 AAA
TAFFST
TAF AMD
KFST 261944Z 2620/2718 01008KT P6SM -RA OVC040
      TEMPO 2620/2622 5SM BR BKN030
     FM270600 35006KT 5SM SHRA BR BKN010
     FM271300 30006KT P6SM BKN040=

USA.gov is the U.S. government's official web portal to all federal, state and local government web resources and services.